createdAt,value
2017-06-21T00:00:30.569Z,0
2017-06-21T00:01:29.961Z,0
2017-06-21T00:02:30.566Z,0
2017-06-21T00:03:30.263Z,0
2017-06-21T00:04:30.565Z,0
2017-06-21T00:05:30.261Z,0
2017-06-21T00:06:30.574Z,0
2017-06-21T00:07:30.566Z,0
2017-06-21T00:08:30.261Z,0
2017-06-21T00:09:30.571Z,0
2017-06-21T00:10:30.573Z,0
2017-06-21T00:11:30.570Z,0
2017-06-21T00:12:30.569Z,0
2017-06-21T00:13:30.565Z,0
2017-06-21T00:14:30.261Z,0
2017-06-21T00:15:30.564Z,0
2017-06-21T00:16:30.564Z,0
2017-06-21T00:17:30.261Z,0
2017-06-21T00:18:30.569Z,0
2017-06-21T00:19:30.565Z,0
2017-06-21T00:20:30.572Z,0
2017-06-21T00:21:30.567Z,0
2017-06-21T00:22:30.266Z,0
2017-06-21T00:23:30.569Z,0
2017-06-21T00:24:30.566Z,0
2017-06-21T00:25:30.263Z,0
2017-06-21T00:26:30.565Z,0
2017-06-21T00:27:30.564Z,0
2017-06-21T00:28:29.952Z,0
2017-06-21T00:29:30.572Z,0
2017-06-21T00:30:30.568Z,0
2017-06-21T00:31:30.262Z,0
2017-06-21T00:32:30.564Z,0
2017-06-21T00:33:29.961Z,0
2017-06-21T00:34:30.559Z,0
2017-06-21T00:35:29.954Z,0
2017-06-21T00:36:30.565Z,0
2017-06-21T00:37:30.564Z,0
2017-06-21T00:38:30.565Z,0
2017-06-21T00:39:30.268Z,0
2017-06-21T00:40:30.258Z,0
2017-06-21T00:41:30.296Z,0
2017-06-21T00:42:30.255Z,0
2017-06-21T00:43:30.263Z,0
2017-06-21T00:44:30.254Z,0
2017-06-21T00:45:30.256Z,0
2017-06-21T00:46:30.257Z,0
2017-06-21T00:47:30.259Z,0
2017-06-21T00:48:30.564Z,0
2017-06-21T00:49:30.254Z,0
2017-06-21T00:50:30.256Z,0
2017-06-21T00:51:30.559Z,0
2017-06-21T00:52:30.249Z,0
2017-06-21T00:53:30.254Z,0
2017-06-21T00:54:30.553Z,0
2017-06-21T00:55:29.951Z,0
2017-06-21T00:56:29.945Z,0
2017-06-21T00:57:30.561Z,0
2017-06-21T00:58:29.945Z,0
2017-06-21T00:59:30.562Z,0
2017-06-21T01:00:29.949Z,0
2017-06-21T01:01:29.947Z,0
2017-06-21T01:02:30.557Z,0
2017-06-21T01:03:29.947Z,0
2017-06-21T01:04:30.252Z,0
2017-06-21T01:05:30.556Z,0
2017-06-21T01:06:30.554Z,0
2017-06-21T01:07:30.252Z,0
2017-06-21T01:08:30.555Z,0
2017-06-21T01:09:30.251Z,0
2017-06-21T01:10:30.256Z,0
2017-06-21T01:11:30.558Z,0
2017-06-21T01:12:30.560Z,0
2017-06-21T01:13:30.250Z,0
2017-06-21T01:14:30.556Z,0
2017-06-21T01:15:30.558Z,0
2017-06-21T01:16:30.251Z,0
2017-06-21T01:17:30.556Z,0
2017-06-21T01:18:30.249Z,0
2017-06-21T01:19:30.555Z,0
2017-06-21T01:20:30.555Z,0
2017-06-21T01:21:30.248Z,0
2017-06-21T01:22:30.249Z,0
2017-06-21T01:23:30.250Z,0
2017-06-21T01:24:30.553Z,0
2017-06-21T01:25:30.555Z,0
2017-06-21T01:26:29.941Z,0
2017-06-21T01:27:29.940Z,0
2017-06-21T01:28:30.551Z,0
2017-06-21T01:29:30.244Z,0
2017-06-21T01:30:30.250Z,0
2017-06-21T01:31:30.249Z,0
2017-06-21T01:32:30.552Z,0
2017-06-21T01:33:30.253Z,0
2017-06-21T01:34:30.547Z,0
2017-06-21T01:35:30.551Z,0
2017-06-21T01:36:30.552Z,0
2017-06-21T01:37:30.553Z,0
2017-06-21T01:38:29.946Z,0
2017-06-21T01:39:30.241Z,0
2017-06-21T01:40:30.552Z,0
2017-06-21T01:41:30.249Z,0
2017-06-21T01:42:30.241Z,0
2017-06-21T01:43:30.247Z,0
2017-06-21T01:44:30.554Z,0
2017-06-21T01:45:30.544Z,0
2017-06-21T01:46:30.552Z,0
2017-06-21T01:47:30.551Z,0
2017-06-21T01:48:30.239Z,0
2017-06-21T01:49:30.545Z,0
2017-06-21T01:50:30.546Z,0
2017-06-21T01:51:30.544Z,0
2017-06-21T01:52:30.545Z,0
2017-06-21T01:53:30.240Z,0
2017-06-21T01:54:30.546Z,0
2017-06-21T01:55:30.541Z,0
2017-06-21T01:56:30.546Z,0
2017-06-21T01:57:30.543Z,0
2017-06-21T01:58:30.549Z,0
2017-06-21T01:59:30.236Z,0
2017-06-21T02:00:30.545Z,0
2017-06-21T02:01:30.544Z,0
2017-06-21T02:02:29.931Z,0
2017-06-21T02:03:30.539Z,0
2017-06-21T02:04:29.927Z,0
2017-06-21T02:05:30.233Z,0
2017-06-21T02:06:29.924Z,0
2017-06-21T02:07:30.544Z,0
2017-06-21T02:08:30.540Z,0
2017-06-21T02:09:30.537Z,0
2017-06-21T02:10:29.924Z,0
2017-06-21T02:11:30.538Z,0
2017-06-21T02:12:30.544Z,0
2017-06-21T02:13:29.927Z,0
2017-06-21T02:14:30.544Z,0
2017-06-21T02:15:30.541Z,0
2017-06-21T02:16:30.536Z,0
2017-06-21T02:17:30.236Z,0
2017-06-21T02:18:30.230Z,0
2017-06-21T02:19:29.931Z,0
2017-06-21T02:20:30.536Z,0
2017-06-21T02:21:30.534Z,0
2017-06-21T02:22:29.613Z,0
2017-06-21T02:23:29.920Z,0
2017-06-21T02:24:30.532Z,0
2017-06-21T02:25:30.537Z,0
2017-06-21T02:26:30.531Z,0
2017-06-21T02:27:30.224Z,0
2017-06-21T02:28:30.534Z,0
2017-06-21T02:29:30.532Z,0
2017-06-21T02:30:30.229Z,0
2017-06-21T02:31:30.533Z,0
2017-06-21T02:32:30.531Z,0
2017-06-21T02:33:29.917Z,0
2017-06-21T02:34:30.524Z,0
2017-06-21T02:35:30.531Z,0
2017-06-21T02:36:29.918Z,0
2017-06-21T02:37:30.232Z,0
2017-06-21T02:38:29.917Z,0
2017-06-21T02:39:29.912Z,0
2017-06-21T02:40:30.528Z,0
2017-06-21T02:41:30.529Z,0
2017-06-21T02:42:30.220Z,0
2017-06-21T02:43:30.529Z,0
2017-06-21T02:44:30.527Z,0
2017-06-21T02:45:30.217Z,0
2017-06-21T02:46:30.224Z,0
2017-06-21T02:47:30.526Z,0
2017-06-21T02:48:30.525Z,0
2017-06-21T02:49:30.529Z,0
2017-06-21T02:50:29.909Z,0
2017-06-21T02:51:30.529Z,4
2017-06-21T02:52:30.527Z,4
2017-06-21T02:53:30.520Z,0
2017-06-21T02:54:30.525Z,0
2017-06-21T02:55:30.520Z,4
2017-06-21T02:56:30.523Z,4
2017-06-21T02:57:30.218Z,4
2017-06-21T02:58:30.211Z,4
2017-06-21T02:59:30.525Z,4
2017-06-21T03:00:30.528Z,4
2017-06-21T03:01:30.537Z,4
2017-06-21T03:02:30.517Z,8
2017-06-21T03:03:30.213Z,8
2017-06-21T03:04:30.212Z,12
2017-06-21T03:05:29.905Z,12
2017-06-21T03:06:30.517Z,12
2017-06-21T03:07:30.514Z,12
2017-06-21T03:08:29.905Z,16
2017-06-21T03:09:29.901Z,16
2017-06-21T03:10:30.207Z,20
2017-06-21T03:11:30.209Z,24
2017-06-21T03:12:30.549Z,24
2017-06-21T03:13:30.515Z,28
2017-06-21T03:14:30.506Z,32
2017-06-21T03:15:30.511Z,32
2017-06-21T03:16:30.510Z,32
2017-06-21T03:17:30.203Z,40
2017-06-21T03:18:29.901Z,40
2017-06-21T03:19:30.516Z,48
2017-06-21T03:20:30.514Z,52
2017-06-21T03:21:30.203Z,56
2017-06-21T03:22:30.207Z,64
2017-06-21T03:23:30.510Z,72
2017-06-21T03:24:30.513Z,76
2017-06-21T03:25:30.204Z,84
2017-06-21T03:26:30.203Z,96
2017-06-21T03:27:30.503Z,108
2017-06-21T03:28:30.200Z,120
2017-06-21T03:29:30.505Z,128
2017-06-21T03:30:29.891Z,140
2017-06-21T03:31:29.895Z,152
2017-06-21T03:32:30.204Z,164
2017-06-21T03:33:30.202Z,176
2017-06-21T03:34:30.503Z,192
2017-06-21T03:35:30.505Z,208
2017-06-21T03:36:30.498Z,224
2017-06-21T03:37:30.195Z,240
2017-06-21T03:38:30.501Z,260
2017-06-21T03:39:30.195Z,284
2017-06-21T03:40:30.498Z,308
2017-06-21T03:41:30.237Z,336
2017-06-21T03:42:30.190Z,364
2017-06-21T03:43:30.500Z,392
2017-06-21T03:44:30.189Z,416
2017-06-21T03:45:30.192Z,448
2017-06-21T03:46:30.495Z,476
2017-06-21T03:47:30.187Z,508
2017-06-21T03:48:30.193Z,536
2017-06-21T03:49:29.885Z,564
2017-06-21T03:50:30.193Z,596
2017-06-21T03:51:30.186Z,628
2017-06-21T03:52:30.192Z,664
2017-06-21T03:53:30.187Z,700
2017-06-21T03:54:30.183Z,736
2017-06-21T03:55:30.187Z,772
2017-06-21T03:56:30.186Z,812
2017-06-21T03:57:30.184Z,840
2017-06-21T03:58:30.489Z,876
2017-06-21T03:59:30.492Z,904
2017-06-21T04:00:30.183Z,928
2017-06-21T04:01:30.184Z,964
2017-06-21T04:02:29.875Z,988
2017-06-21T04:03:30.195Z,1020
2017-06-21T04:04:30.485Z,1048
2017-06-21T04:05:30.487Z,1076
2017-06-21T04:06:30.183Z,1104
2017-06-21T04:07:29.875Z,1128
2017-06-21T04:08:30.184Z,1148
2017-06-21T04:09:30.183Z,1176
2017-06-21T04:10:30.181Z,1208
2017-06-21T04:11:30.179Z,1244
2017-06-21T04:12:30.486Z,1288
2017-06-21T04:13:30.176Z,1348
2017-06-21T04:14:30.483Z,1428
2017-06-21T04:15:30.178Z,1500
2017-06-21T04:16:30.482Z,1560
2017-06-21T04:17:30.484Z,1612
2017-06-21T04:18:30.179Z,1656
2017-06-21T04:19:30.173Z,1696
2017-06-21T04:20:30.181Z,1736
2017-06-21T04:21:29.875Z,1784
2017-06-21T04:22:30.486Z,1832
2017-06-21T04:23:30.179Z,1880
2017-06-21T04:24:30.178Z,1928
2017-06-21T04:25:30.182Z,1964
2017-06-21T04:26:30.179Z,2000
2017-06-21T04:27:29.871Z,2036
2017-06-21T04:28:30.182Z,2084
2017-06-21T04:29:30.176Z,2132
2017-06-21T04:30:30.181Z,2204
2017-06-21T04:31:30.187Z,2300
2017-06-21T04:32:30.177Z,2384
2017-06-21T04:33:30.484Z,2456
2017-06-21T04:34:30.480Z,2544
2017-06-21T04:35:30.178Z,2660
2017-06-21T04:36:30.482Z,2732
2017-06-21T04:37:30.181Z,2816
2017-06-21T04:38:30.179Z,2864
2017-06-21T04:39:30.177Z,2916
2017-06-21T04:40:30.183Z,3024
2017-06-21T04:41:30.177Z,3128
2017-06-21T04:42:30.484Z,3236
2017-06-21T04:43:30.180Z,3436
2017-06-21T04:44:30.181Z,3568
2017-06-21T04:45:30.188Z,3596
2017-06-21T04:46:30.187Z,3844
2017-06-21T04:47:30.188Z,4300
2017-06-21T04:48:30.191Z,4712
2017-06-21T04:49:30.188Z,4908
2017-06-21T04:50:30.188Z,4940
2017-06-21T04:51:30.189Z,5132
2017-06-21T04:52:30.187Z,5188
2017-06-21T04:53:30.496Z,5296
2017-06-21T04:54:30.497Z,5388
2017-06-21T04:55:30.495Z,5560
2017-06-21T04:56:30.497Z,5732
2017-06-21T04:57:30.192Z,5916
2017-06-21T04:58:30.195Z,6020
2017-06-21T04:59:29.896Z,5728
2017-06-21T05:00:30.193Z,5836
2017-06-21T05:01:30.511Z,6520
2017-06-21T05:02:30.198Z,6664
2017-06-21T05:03:30.204Z,6808
2017-06-21T05:04:30.199Z,7108
2017-06-21T05:05:30.206Z,7264
2017-06-21T05:06:30.508Z,7336
2017-06-21T05:07:30.205Z,7620
2017-06-21T05:08:30.206Z,7668
2017-06-21T05:09:30.210Z,7808
2017-06-21T05:10:30.212Z,7784
2017-06-21T05:11:30.212Z,7892
2017-06-21T05:12:29.908Z,8016
2017-06-21T05:13:29.910Z,8000
2017-06-21T05:14:30.521Z,8144
2017-06-21T05:15:30.527Z,8104
2017-06-21T05:16:29.921Z,8148
2017-06-21T05:17:30.529Z,7832
2017-06-21T05:18:30.531Z,8596
2017-06-21T05:19:29.921Z,8648
2017-06-21T05:20:29.924Z,9068
2017-06-21T05:21:30.537Z,9528
2017-06-21T05:22:30.541Z,9700
2017-06-21T05:23:30.541Z,9740
2017-06-21T05:24:30.543Z,9144
2017-06-21T05:25:30.241Z,10420
2017-06-21T05:26:30.550Z,10608
2017-06-21T05:27:30.549Z,10780
2017-06-21T05:28:30.551Z,10036
2017-06-21T05:29:30.254Z,11304
2017-06-21T05:30:30.255Z,11580
2017-06-21T05:31:30.564Z,11844
2017-06-21T05:32:30.266Z,9280
2017-06-21T05:33:30.569Z,11296
2017-06-21T05:34:30.573Z,12384
2017-06-21T05:35:30.589Z,12928
2017-06-21T05:36:30.576Z,12448
2017-06-21T05:37:30.276Z,12448
2017-06-21T05:38:30.280Z,13024
2017-06-21T05:39:30.594Z,13024
2017-06-21T05:40:30.588Z,12896
2017-06-21T05:41:30.594Z,12608
2017-06-21T05:42:30.598Z,13312
2017-06-21T05:43:30.295Z,13024
2017-06-21T05:44:30.299Z,12992
2017-06-21T05:45:30.611Z,13120
2017-06-21T05:46:30.001Z,12672
2017-06-21T05:47:30.612Z,12992
2017-06-21T05:48:30.312Z,13536
2017-06-21T05:49:30.621Z,13952
2017-06-21T05:50:30.624Z,13824
2017-06-21T05:51:30.324Z,13920
2017-06-21T05:52:30.632Z,14624
2017-06-21T05:53:30.336Z,14272
2017-06-21T05:54:30.336Z,14816
2017-06-21T05:55:30.647Z,14880
2017-06-21T05:56:30.344Z,15232
2017-06-21T05:57:30.349Z,15392
2017-06-21T05:58:30.659Z,15136
2017-06-21T05:59:30.660Z,15392
2017-06-21T06:00:30.661Z,15232
2017-06-21T06:01:30.060Z,15392
2017-06-21T06:02:30.370Z,15488
2017-06-21T06:03:30.707Z,15072
2017-06-21T06:04:30.685Z,15584
2017-06-21T06:05:30.379Z,15392
2017-06-21T06:06:30.697Z,15488
2017-06-21T06:07:30.694Z,16448
2017-06-21T06:08:30.389Z,16320
2017-06-21T06:09:30.402Z,16000
2017-06-21T06:10:30.095Z,16384
2017-06-21T06:11:30.411Z,17408
2017-06-21T06:12:30.413Z,17792
2017-06-21T06:13:30.418Z,17760
2017-06-21T06:14:30.421Z,18176
2017-06-21T06:15:30.430Z,19008
2017-06-21T06:16:30.430Z,17824
2017-06-21T06:17:29.824Z,17856
2017-06-21T06:18:30.444Z,18176
2017-06-21T06:19:30.139Z,18624
2017-06-21T06:20:30.450Z,18464
2017-06-21T06:21:30.156Z,18496
2017-06-21T06:22:30.458Z,19936
2017-06-21T06:23:30.462Z,19648
2017-06-21T06:24:30.166Z,19200
2017-06-21T06:25:30.472Z,19168
2017-06-21T06:26:30.478Z,18304
2017-06-21T06:27:30.790Z,19488
2017-06-21T06:28:30.785Z,19328
2017-06-21T06:29:30.489Z,18720
2017-06-21T06:30:30.498Z,18048
2017-06-21T06:31:30.504Z,18176
2017-06-21T06:32:30.502Z,18336
2017-06-21T06:33:30.508Z,18752
2017-06-21T06:34:30.510Z,18752
2017-06-21T06:35:30.824Z,18496
2017-06-21T06:36:30.517Z,18880
2017-06-21T06:37:30.834Z,19808
2017-06-21T06:38:30.530Z,19584
2017-06-21T06:39:30.838Z,19232
2017-06-21T06:40:30.845Z,18656
2017-06-21T06:41:30.849Z,18944
2017-06-21T06:42:30.545Z,19712
2017-06-21T06:43:30.856Z,19296
2017-06-21T06:44:30.554Z,19584
2017-06-21T06:45:30.557Z,20128
2017-06-21T06:46:30.576Z,19904
2017-06-21T06:47:30.575Z,19712
2017-06-21T06:48:30.575Z,19552
2017-06-21T06:49:30.575Z,19520
2017-06-21T06:50:30.590Z,19520
2017-06-21T06:51:30.585Z,19904
2017-06-21T06:52:30.590Z,19840
2017-06-21T06:53:30.907Z,19968
2017-06-21T06:54:30.293Z,19392
2017-06-21T06:55:30.915Z,18976
2017-06-21T06:56:30.917Z,20320
2017-06-21T06:57:30.611Z,20224
2017-06-21T06:58:30.611Z,20224
2017-06-21T06:59:30.662Z,19872
2017-06-21T07:00:30.930Z,20192
2017-06-21T07:01:30.931Z,20544
2017-06-21T07:02:30.634Z,20608
2017-06-21T07:03:30.631Z,20832
2017-06-21T07:04:30.936Z,20224
2017-06-21T07:05:30.332Z,19840
2017-06-21T07:06:30.683Z,20576
2017-06-21T07:07:30.643Z,20736
2017-06-21T07:08:30.961Z,19552
2017-06-21T07:09:30.343Z,15552
2017-06-21T07:10:30.655Z,11980
2017-06-21T07:11:30.999Z,9424
2017-06-21T07:12:30.971Z,9180
2017-06-21T07:13:30.976Z,9192
2017-06-21T07:14:30.666Z,9164
2017-06-21T07:15:30.674Z,9124
2017-06-21T07:16:30.375Z,9020
2017-06-21T07:17:30.988Z,8968
2017-06-21T07:18:30.684Z,8948
2017-06-21T07:19:30.382Z,8960
2017-06-21T07:20:30.689Z,8932
2017-06-21T07:21:30.695Z,8796
2017-06-21T07:22:30.392Z,8796
2017-06-21T07:23:30.702Z,8856
2017-06-21T07:24:30.702Z,8768
2017-06-21T07:25:31.013Z,8676
2017-06-21T07:26:30.711Z,8644
2017-06-21T07:27:30.709Z,8596
2017-06-21T07:28:30.720Z,8496
2017-06-21T07:29:30.715Z,8580
2017-06-21T07:30:31.031Z,8624
2017-06-21T07:31:31.032Z,8564
2017-06-21T07:32:31.032Z,8472
2017-06-21T07:33:31.035Z,8504
2017-06-21T07:34:31.035Z,8604
2017-06-21T07:35:31.044Z,8596
2017-06-21T07:36:30.740Z,8732
2017-06-21T07:37:30.741Z,8760
2017-06-21T07:38:31.051Z,8676
2017-06-21T07:39:30.764Z,8564
2017-06-21T07:40:31.053Z,8648
2017-06-21T07:41:30.752Z,8640
2017-06-21T07:42:30.755Z,8656
2017-06-21T07:43:30.756Z,8572
2017-06-21T07:44:31.068Z,8432
2017-06-21T07:45:31.071Z,8408
2017-06-21T07:46:30.768Z,8280
2017-06-21T07:47:31.094Z,8176
2017-06-21T07:48:30.774Z,8108
2017-06-21T07:49:31.085Z,8148
2017-06-21T07:50:30.783Z,8260
2017-06-21T07:51:30.781Z,8276
2017-06-21T07:52:30.785Z,8268
2017-06-21T07:53:30.787Z,8272
2017-06-21T07:54:31.109Z,8220
2017-06-21T07:55:30.485Z,8100
2017-06-21T07:56:31.103Z,7968
2017-06-21T07:57:31.153Z,7788
2017-06-21T07:58:30.798Z,7916
2017-06-21T07:59:30.803Z,7808
2017-06-21T08:00:31.117Z,7612
2017-06-21T08:01:30.806Z,7472
2017-06-21T08:02:30.815Z,7388
2017-06-21T08:03:30.815Z,7324
2017-06-21T08:04:30.822Z,7240
2017-06-21T08:05:31.132Z,7204
2017-06-21T08:06:30.825Z,7188
2017-06-21T08:07:30.522Z,7088
2017-06-21T08:08:30.828Z,7052
2017-06-21T08:09:30.836Z,6996
2017-06-21T08:10:30.835Z,6932
2017-06-21T08:11:31.147Z,6872
2017-06-21T08:12:30.841Z,6816
2017-06-21T08:13:31.156Z,6748
2017-06-21T08:14:31.151Z,6672
2017-06-21T08:15:31.171Z,6612
2017-06-21T08:16:31.156Z,6532
2017-06-21T08:17:31.158Z,6508
2017-06-21T08:18:30.851Z,6472
2017-06-21T08:19:31.164Z,6488
2017-06-21T08:20:31.170Z,6484
2017-06-21T08:21:31.169Z,6480
2017-06-21T08:22:30.872Z,6464
2017-06-21T08:23:30.866Z,6408
2017-06-21T08:24:30.880Z,6332
2017-06-21T08:25:31.178Z,6248
2017-06-21T08:26:31.180Z,6292
2017-06-21T08:27:31.185Z,6320
2017-06-21T08:28:31.186Z,6308
2017-06-21T08:29:31.189Z,6264
2017-06-21T08:30:30.886Z,6224
2017-06-21T08:31:31.192Z,6164
2017-06-21T08:32:30.915Z,6108
2017-06-21T08:33:31.196Z,6064
2017-06-21T08:34:31.199Z,6048
2017-06-21T08:35:31.203Z,5996
2017-06-21T08:36:30.902Z,5912
2017-06-21T08:37:31.206Z,5888
2017-06-21T08:38:30.910Z,5856
2017-06-21T08:39:31.213Z,5860
2017-06-21T08:40:30.912Z,5824
2017-06-21T08:41:31.245Z,5724
2017-06-21T08:42:31.221Z,5692
2017-06-21T08:43:31.222Z,5660
2017-06-21T08:44:31.226Z,5600
2017-06-21T08:45:30.920Z,5540
2017-06-21T08:46:31.232Z,5472
2017-06-21T08:47:30.922Z,5424
2017-06-21T08:48:31.231Z,5400
2017-06-21T08:49:31.236Z,5356
2017-06-21T08:50:31.248Z,5300
2017-06-21T08:51:31.242Z,5268
2017-06-21T08:52:31.246Z,5216
2017-06-21T08:53:30.938Z,5192
2017-06-21T08:54:30.633Z,5172
2017-06-21T08:55:31.250Z,5148
2017-06-21T08:56:31.249Z,5088
2017-06-21T08:57:31.252Z,5076
2017-06-21T08:58:31.257Z,5096
2017-06-21T08:59:31.261Z,5092
2017-06-21T09:00:31.267Z,5052
2017-06-21T09:01:30.649Z,4972
2017-06-21T09:02:31.260Z,4896
2017-06-21T09:03:31.264Z,4808
2017-06-21T09:04:30.653Z,4724
2017-06-21T09:05:31.271Z,4664
2017-06-21T09:06:30.970Z,4660
2017-06-21T09:07:31.278Z,4684
2017-06-21T09:08:31.275Z,4664
2017-06-21T09:09:31.279Z,4640
2017-06-21T09:10:31.282Z,4576
2017-06-21T09:11:31.279Z,4516
2017-06-21T09:12:31.289Z,4444
2017-06-21T09:13:31.286Z,4360
2017-06-21T09:14:30.980Z,4280
2017-06-21T09:15:30.986Z,4260
2017-06-21T09:16:30.680Z,4240
2017-06-21T09:17:30.990Z,4240
2017-06-21T09:18:31.294Z,4220
2017-06-21T09:19:31.301Z,4148
2017-06-21T09:20:31.302Z,4100
2017-06-21T09:21:31.314Z,4068
2017-06-21T09:22:30.999Z,4032
2017-06-21T09:23:31.308Z,3984
2017-06-21T09:24:31.002Z,3936
2017-06-21T09:25:31.005Z,3924
2017-06-21T09:26:31.310Z,3944
2017-06-21T09:27:31.002Z,3932
2017-06-21T09:28:31.313Z,3904
2017-06-21T09:29:31.313Z,3892
2017-06-21T09:30:31.318Z,3888
2017-06-21T09:31:31.321Z,3852
2017-06-21T09:32:31.016Z,3828
2017-06-21T09:33:31.323Z,3796
2017-06-21T09:34:30.717Z,3768
2017-06-21T09:35:31.025Z,3752
2017-06-21T09:36:31.327Z,3736
2017-06-21T09:37:31.326Z,3728
2017-06-21T09:38:31.024Z,3712
2017-06-21T09:39:31.337Z,3700
2017-06-21T09:40:30.728Z,3696
2017-06-21T09:41:31.339Z,3692
2017-06-21T09:42:31.338Z,3676
2017-06-21T09:43:31.031Z,3664
2017-06-21T09:44:31.339Z,3644
2017-06-21T09:45:31.339Z,3636
2017-06-21T09:46:31.344Z,3620
2017-06-21T09:47:31.039Z,3616
2017-06-21T09:48:30.733Z,3616
2017-06-21T09:49:31.345Z,3608
2017-06-21T09:50:31.050Z,3600
2017-06-21T09:51:31.043Z,3604
2017-06-21T09:52:30.742Z,3600
2017-06-21T09:53:31.051Z,3588
2017-06-21T09:54:31.057Z,3580
2017-06-21T09:55:31.357Z,3572
2017-06-21T09:56:31.056Z,3556
2017-06-21T09:57:31.056Z,3548
2017-06-21T09:58:31.056Z,3548
2017-06-21T09:59:31.366Z,3544
2017-06-21T10:00:31.062Z,3528
2017-06-21T10:01:31.061Z,3508
2017-06-21T10:02:30.757Z,3496
2017-06-21T10:03:31.063Z,3480
2017-06-21T10:04:31.064Z,3464
2017-06-21T10:05:31.374Z,3444
2017-06-21T10:06:30.763Z,3424
2017-06-21T10:07:30.456Z,3404
2017-06-21T10:08:31.381Z,3380
2017-06-21T10:09:31.381Z,3372
2017-06-21T10:10:31.380Z,3360
2017-06-21T10:11:30.771Z,3340
2017-06-21T10:12:31.080Z,3308
2017-06-21T10:13:31.078Z,3284
2017-06-21T10:14:31.079Z,3268
2017-06-21T10:15:30.780Z,3260
2017-06-21T10:16:31.391Z,3248
2017-06-21T10:17:31.390Z,3244
2017-06-21T10:18:31.395Z,3228
2017-06-21T10:19:31.397Z,3216
2017-06-21T10:20:31.131Z,3200
2017-06-21T10:21:31.091Z,3184
2017-06-21T10:22:31.093Z,3180
2017-06-21T10:23:31.403Z,3156
2017-06-21T10:24:30.792Z,3136
2017-06-21T10:25:31.405Z,3120
2017-06-21T10:26:31.132Z,3100
2017-06-21T10:27:31.404Z,3092
2017-06-21T10:28:30.796Z,3068
2017-06-21T10:29:31.411Z,3052
2017-06-21T10:30:31.101Z,3024
2017-06-21T10:31:31.107Z,3012
2017-06-21T10:32:31.109Z,3004
2017-06-21T10:33:31.413Z,2988
2017-06-21T10:34:30.801Z,2972
2017-06-21T10:35:31.119Z,2956
2017-06-21T10:36:30.501Z,2928
2017-06-21T10:37:31.115Z,2900
2017-06-21T10:38:31.119Z,2884
2017-06-21T10:39:31.425Z,2884
2017-06-21T10:40:31.426Z,2888
2017-06-21T10:41:31.426Z,2884
2017-06-21T10:42:31.123Z,2864
2017-06-21T10:43:31.122Z,2848
2017-06-21T10:44:31.132Z,2828
2017-06-21T10:45:31.470Z,2812
2017-06-21T10:46:31.128Z,2788
2017-06-21T10:47:31.128Z,2764
2017-06-21T10:48:31.133Z,2744
2017-06-21T10:49:31.133Z,2712
2017-06-21T10:50:31.137Z,2692
2017-06-21T10:51:31.134Z,2664
2017-06-21T10:52:31.442Z,2636
2017-06-21T10:53:31.177Z,2616
2017-06-21T10:54:31.448Z,2604
2017-06-21T10:55:31.447Z,2600
2017-06-21T10:56:30.528Z,2584
2017-06-21T10:57:31.157Z,2572
2017-06-21T10:58:31.453Z,2564
2017-06-21T10:59:31.454Z,2564
2017-06-21T11:00:31.453Z,2580
2017-06-21T11:01:30.847Z,2588
2017-06-21T11:02:31.454Z,2588
2017-06-21T11:03:31.455Z,2576
2017-06-21T11:04:31.454Z,2596
2017-06-21T11:05:31.151Z,2616
2017-06-21T11:06:31.458Z,2632
2017-06-21T11:07:31.151Z,2676
2017-06-21T11:08:31.158Z,2744
2017-06-21T11:09:31.482Z,2748
2017-06-21T11:10:31.466Z,2688
2017-06-21T11:11:30.856Z,2620
2017-06-21T11:12:31.467Z,2560
2017-06-21T11:13:31.157Z,2512
2017-06-21T11:14:31.469Z,2488
2017-06-21T11:15:31.473Z,2452
2017-06-21T11:16:31.163Z,2420
2017-06-21T11:17:31.197Z,2384
2017-06-21T11:18:31.476Z,2336
2017-06-21T11:19:31.203Z,2288
2017-06-21T11:20:31.172Z,2256
2017-06-21T11:21:30.877Z,2232
2017-06-21T11:22:31.481Z,2220
2017-06-21T11:23:30.869Z,2196
2017-06-21T11:24:31.483Z,2180
2017-06-21T11:25:31.488Z,2176
2017-06-21T11:26:30.873Z,2176
2017-06-21T11:27:31.183Z,2176
2017-06-21T11:28:31.185Z,2156
2017-06-21T11:29:31.491Z,2144
2017-06-21T11:30:31.490Z,2136
2017-06-21T11:31:31.191Z,2116
2017-06-21T11:32:31.493Z,2104
2017-06-21T11:33:30.577Z,2108
2017-06-21T11:34:31.507Z,2096
2017-06-21T11:35:31.193Z,2092
2017-06-21T11:36:31.502Z,2088
2017-06-21T11:37:31.198Z,2092
2017-06-21T11:38:31.195Z,2084
2017-06-21T11:39:31.505Z,2064
2017-06-21T11:40:31.199Z,2056
2017-06-21T11:41:30.917Z,2044
2017-06-21T11:42:31.507Z,2028
2017-06-21T11:43:31.202Z,2012
2017-06-21T11:44:30.590Z,1992
2017-06-21T11:45:30.899Z,1968
2017-06-21T11:46:30.905Z,1944
2017-06-21T11:47:30.902Z,1916
2017-06-21T11:48:31.515Z,1892
2017-06-21T11:49:30.906Z,1876
2017-06-21T11:50:30.902Z,1864
2017-06-21T11:51:31.214Z,1844
2017-06-21T11:52:31.519Z,1836
2017-06-21T11:53:31.213Z,1832
2017-06-21T11:54:31.212Z,1820
2017-06-21T11:55:31.218Z,1804
2017-06-21T11:56:31.525Z,1808
2017-06-21T11:57:31.223Z,1808
2017-06-21T11:58:31.220Z,1808
2017-06-21T11:59:31.222Z,1808
2017-06-21T12:00:31.224Z,1788
2017-06-21T12:01:31.538Z,1772
2017-06-21T12:02:31.224Z,1760
2017-06-21T12:03:30.916Z,1748
2017-06-21T12:04:30.918Z,1744
2017-06-21T12:05:31.238Z,1740
2017-06-21T12:06:30.618Z,1732
2017-06-21T12:07:30.928Z,1724
2017-06-21T12:08:30.924Z,1728
2017-06-21T12:09:30.925Z,1724
2017-06-21T12:10:30.935Z,1712
2017-06-21T12:11:31.547Z,1716
2017-06-21T12:12:31.240Z,1720
2017-06-21T12:13:30.939Z,1712
2017-06-21T12:14:30.931Z,1692
2017-06-21T12:15:31.244Z,1696
2017-06-21T12:16:30.937Z,1684
2017-06-21T12:17:31.249Z,1676
2017-06-21T12:18:30.940Z,1664
2017-06-21T12:19:31.245Z,1656
2017-06-21T12:20:31.251Z,1640
2017-06-21T12:21:31.249Z,1628
2017-06-21T12:22:30.633Z,1620
2017-06-21T12:23:30.950Z,1560
2017-06-21T12:24:31.252Z,1588
2017-06-21T12:25:31.251Z,1576
2017-06-21T12:26:31.255Z,1576
2017-06-21T12:27:30.952Z,1568
2017-06-21T12:28:31.260Z,1568
2017-06-21T12:29:31.260Z,1576
2017-06-21T12:30:30.956Z,1576
2017-06-21T12:31:31.266Z,1576
2017-06-21T12:32:31.267Z,1576
2017-06-21T12:33:30.958Z,1568
2017-06-21T12:34:31.263Z,1560
2017-06-21T12:35:31.262Z,1548
2017-06-21T12:36:31.265Z,1544
2017-06-21T12:37:31.573Z,1544
2017-06-21T12:38:31.271Z,1536
2017-06-21T12:39:30.962Z,1532
2017-06-21T12:40:31.582Z,1480
2017-06-21T12:41:31.275Z,1376
2017-06-21T12:42:30.975Z,1496
2017-06-21T12:43:31.169Z,1508
2017-06-21T12:44:31.592Z,1424
2017-06-21T12:45:31.282Z,1412
2017-06-21T12:46:31.278Z,1252
2017-06-21T12:47:30.976Z,1108
2017-06-21T12:48:31.282Z,980
2017-06-21T12:49:31.596Z,864
2017-06-21T12:50:30.979Z,808
2017-06-21T12:51:31.286Z,804
2017-06-21T12:52:30.975Z,792
2017-06-21T12:53:31.596Z,780
2017-06-21T12:54:31.617Z,780
2017-06-21T12:55:31.590Z,776
2017-06-21T12:56:31.599Z,780
2017-06-21T12:57:31.291Z,776
2017-06-21T12:58:31.602Z,760
2017-06-21T12:59:31.294Z,748
2017-06-21T13:00:31.294Z,772
2017-06-21T13:01:31.604Z,816
2017-06-21T13:02:31.298Z,856
2017-06-21T13:03:30.993Z,888
2017-06-21T13:04:30.991Z,904
2017-06-21T13:05:31.606Z,912
2017-06-21T13:06:31.301Z,920
2017-06-21T13:07:31.300Z,924
2017-06-21T13:08:31.605Z,928
2017-06-21T13:09:31.610Z,936
2017-06-21T13:10:31.611Z,944
2017-06-21T13:11:30.995Z,956
2017-06-21T13:12:31.306Z,968
2017-06-21T13:13:31.304Z,976
2017-06-21T13:14:31.309Z,980
2017-06-21T13:15:31.000Z,980
2017-06-21T13:16:31.308Z,980
2017-06-21T13:17:31.617Z,992
2017-06-21T13:18:31.314Z,1008
2017-06-21T13:19:31.315Z,1040
2017-06-21T13:20:31.622Z,1072
2017-06-21T13:21:31.626Z,1100
2017-06-21T13:22:31.622Z,1124
2017-06-21T13:23:31.319Z,1136
2017-06-21T13:24:31.623Z,1148
2017-06-21T13:25:31.634Z,1160
2017-06-21T13:26:31.320Z,1164
2017-06-21T13:27:31.632Z,1172
2017-06-21T13:28:31.627Z,1176
2017-06-21T13:29:31.631Z,1172
2017-06-21T13:30:31.625Z,1184
2017-06-21T13:31:31.350Z,1224
2017-06-21T13:32:31.631Z,1304
2017-06-21T13:33:31.329Z,1388
2017-06-21T13:34:31.632Z,1480
2017-06-21T13:35:31.635Z,1576
2017-06-21T13:36:31.338Z,1712
2017-06-21T13:37:31.332Z,1884